createdAt,value
2019-01-03T00:01:48.853Z,12.53
2019-01-03T00:04:37.522Z,17.27
2019-01-03T00:07:33.677Z,8.88
2019-01-03T00:10:24.749Z,13.32
2019-01-03T00:13:18.154Z,6.07
2019-01-03T00:16:21.282Z,15.88
2019-01-03T00:19:20.530Z,8.78
2019-01-03T00:22:08.582Z,6.45
2019-01-03T00:24:54.691Z,7.37
2019-01-03T00:27:42.901Z,6.67
2019-01-03T00:30:33.673Z,6.62
2019-01-03T00:33:22.364Z,9.10
2019-01-03T00:36:08.817Z,9.40
2019-01-03T00:39:02.156Z,6.72
2019-01-03T00:41:52.230Z,5.03
2019-01-03T00:44:35.098Z,6.17
2019-01-03T00:47:21.754Z,11.53
2019-01-03T00:50:07.971Z,13.43
2019-01-03T00:53:06.717Z,11.08
2019-01-03T00:55:54.473Z,5.97
2019-01-03T00:58:40.408Z,10.70
2019-01-03T01:01:31.720Z,4.37
2019-01-03T01:04:19.961Z,6.33
2019-01-03T01:07:09.915Z,7.15
2019-01-03T01:10:00.010Z,7.03
2019-01-03T01:12:45.790Z,8.18
2019-01-03T01:15:43.157Z,5.87
2019-01-03T01:18:36.206Z,5.87
2019-01-03T01:21:26.209Z,5.60
2019-01-03T01:24:16.693Z,21.37
2019-01-03T01:26:57.265Z,9.18
2019-01-03T01:29:44.092Z,7.30
2019-01-03T01:32:37.133Z,12.00
2019-01-03T01:35:18.692Z,6.12
2019-01-03T01:38:01.313Z,8.05
2019-01-03T01:40:58.033Z,12.50
2019-01-03T01:43:44.894Z,13.83
2019-01-03T01:46:30.322Z,10.63
2019-01-03T01:49:12.651Z,14.77
2019-01-03T01:52:06.354Z,14.98
2019-01-03T01:54:57.198Z,6.50
2019-01-03T01:57:43.309Z,11.18
2019-01-03T02:00:29.737Z,7.20
2019-01-03T02:03:29.266Z,8.60
2019-01-03T02:06:25.906Z,10.93
2019-01-03T02:09:12.030Z,10.25
2019-01-03T02:11:57.760Z,13.22
2019-01-03T02:14:45.084Z,12.33
2019-01-03T02:17:22.384Z,9.23
2019-01-03T02:20:07.188Z,10.75
2019-01-03T02:23:05.597Z,8.70
2019-01-03T02:26:05.255Z,11.40
2019-01-03T02:28:55.469Z,15.32
2019-01-03T02:31:39.696Z,7.50
2019-01-03T02:34:36.646Z,12.00
2019-01-03T02:37:23.492Z,8.43
2019-01-03T02:40:17.335Z,12.05
2019-01-03T02:43:17.847Z,8.45
2019-01-03T02:46:03.358Z,6.25
2019-01-03T02:48:45.346Z,6.87
2019-01-03T02:51:51.543Z,7.55
2019-01-03T02:54:43.218Z,6.20
2019-01-03T02:57:25.031Z,12.07
2019-01-03T03:00:11.609Z,8.38
2019-01-03T03:02:59.680Z,12.55
2019-01-03T03:05:46.803Z,5.80
2019-01-03T03:08:33.241Z,9.75
2019-01-03T03:11:29.600Z,11.00
2019-01-03T03:14:21.886Z,11.05
2019-01-03T03:17:27.996Z,7.47
2019-01-03T03:20:09.388Z,12.25
2019-01-03T03:22:59.215Z,5.37
2019-01-03T03:25:34.822Z,4.85
2019-01-03T03:28:14.612Z,6.33
2019-01-03T03:31:01.861Z,9.93
2019-01-03T03:33:47.931Z,10.80
2019-01-03T03:36:53.579Z,6.05
2019-01-03T03:39:39.390Z,7.75
2019-01-03T03:42:26.603Z,7.03
2019-01-03T03:45:12.595Z,5.67
2019-01-03T03:48:06.414Z,7.33
2019-01-03T03:50:53.600Z,5.80
2019-01-03T03:53:40.179Z,8.77
2019-01-03T03:56:38.895Z,6.63
2019-01-03T03:59:26.134Z,8.05
2019-01-03T04:02:16.580Z,5.10
2019-01-03T04:05:02.677Z,8.55
2019-01-03T04:07:46.847Z,11.93
2019-01-03T04:10:32.836Z,9.00
2019-01-03T04:13:29.785Z,7.50
2019-01-03T04:16:23.240Z,5.50
2019-01-03T04:19:09.657Z,9.43
2019-01-03T04:21:56.065Z,9.83
2019-01-03T04:24:42.556Z,11.60
2019-01-03T04:27:45.249Z,11.87
2019-01-03T04:30:43.935Z,11.83
2019-01-03T04:33:31.062Z,13.62
2019-01-03T04:36:17.527Z,14.67
2019-01-03T04:39:23.327Z,12.98
2019-01-03T04:42:10.843Z,11.17
2019-01-03T04:44:58.095Z,8.80
2019-01-03T04:47:43.948Z,18.77
2019-01-03T04:50:30.160Z,13.97
2019-01-03T04:53:16.637Z,13.20
2019-01-03T04:56:15.851Z,12.33
2019-01-03T04:58:59.411Z,15.68
2019-01-03T05:02:15.163Z,10.60
2019-01-03T05:05:08.356Z,8.90
2019-01-03T05:07:57.471Z,16.82
2019-01-03T05:10:43.923Z,14.35
2019-01-03T05:13:31.124Z,8.90
2019-01-03T05:16:17.211Z,16.57
2019-01-03T05:19:07.440Z,8.90
2019-01-03T05:21:53.921Z,10.93
2019-01-03T05:24:51.253Z,12.33
2019-01-03T05:27:47.560Z,12.15
2019-01-03T05:30:33.809Z,13.98
2019-01-03T05:33:19.777Z,7.40
2019-01-03T05:36:05.991Z,13.70
2019-01-03T05:38:52.712Z,13.22
2019-01-03T05:41:46.499Z,8.75
2019-01-03T05:44:43.751Z,12.30
2019-01-03T05:47:49.483Z,12.58
2019-01-03T05:50:37.139Z,7.15
2019-01-03T05:53:27.446Z,7.75
2019-01-03T05:56:49.325Z,10.90
2019-01-03T05:59:35.968Z,15.80
2019-01-03T06:02:22.872Z,22.17
2019-01-03T06:05:12.456Z,17.55
2019-01-03T06:08:00.029Z,19.92
2019-01-03T06:10:45.479Z,7.70
2019-01-03T06:13:35.588Z,17.80
2019-01-03T06:16:38.454Z,23.38
2019-01-03T06:19:29.346Z,16.85
2019-01-03T06:22:20.394Z,12.85
2019-01-03T06:25:06.255Z,13.55
2019-01-03T06:27:47.300Z,12.73
2019-01-03T06:30:35.172Z,19.77
2019-01-03T06:33:37.456Z,10.70
2019-01-03T06:36:36.139Z,22.30
2019-01-03T06:39:21.026Z,15.35
2019-01-03T06:42:11.246Z,12.20
2019-01-03T06:45:15.329Z,13.50
2019-01-03T06:48:11.035Z,16.73
2019-01-03T06:50:58.356Z,17.52
2019-01-03T06:53:43.515Z,20.05
2019-01-03T06:56:30.153Z,22.80
2019-01-03T06:59:23.414Z,15.18
2019-01-03T07:02:23.206Z,33.45
2019-01-03T07:05:21.603Z,18.10
2019-01-03T07:08:08.416Z,22.35
2019-01-03T07:10:48.722Z,22.73
2019-01-03T07:13:32.367Z,21.93
2019-01-03T07:16:18.412Z,25.23
2019-01-03T07:19:04.578Z,23.15
2019-01-03T07:21:50.258Z,24.50
2019-01-03T07:24:43.261Z,24.23
2019-01-03T07:27:29.220Z,30.30
2019-01-03T07:30:28.754Z,33.23
2019-01-03T07:33:33.790Z,21.65
2019-01-03T07:36:36.052Z,26.75
2019-01-03T07:39:43.944Z,22.45
2019-01-03T07:42:32.089Z,30.55
2019-01-03T07:45:29.276Z,26.10
2019-01-03T07:48:28.475Z,28.65
2019-01-03T07:51:22.142Z,36.95
2019-01-03T07:54:11.693Z,41.95
2019-01-03T07:56:56.351Z,39.38
2019-01-03T07:59:53.032Z,36.73
2019-01-03T08:02:40.754Z,45.63
2019-01-03T08:05:33.707Z,40.40
2019-01-03T08:08:21.696Z,50.38
2019-01-03T08:11:18.362Z,47.43
2019-01-03T08:14:08.787Z,42.70
2019-01-03T08:17:05.307Z,35.33
2019-01-03T08:20:08.201Z,51.40
2019-01-03T08:22:59.061Z,41.80
2019-01-03T08:25:45.334Z,42.15
2019-01-03T08:28:36.622Z,45.80
2019-01-03T08:31:27.029Z,37.67
2019-01-03T08:34:18.452Z,52.03
2019-01-03T08:37:08.860Z,48.13
2019-01-03T08:39:58.151Z,41.90
2019-01-03T08:42:49.831Z,34.53
2019-01-03T08:45:36.143Z,37.90
2019-01-03T08:48:21.861Z,48.73
2019-01-03T08:51:08.744Z,35.17
2019-01-03T08:54:11.020Z,42.37
2019-01-03T08:57:07.379Z,41.57
2019-01-03T08:59:52.916Z,35.00
2019-01-03T09:02:38.954Z,30.50
2019-01-03T09:05:37.944Z,38.50
2019-01-03T09:08:23.731Z,33.60
2019-01-03T09:11:09.723Z,34.53
2019-01-03T09:14:00.122Z,37.30
2019-01-03T09:16:46.535Z,36.80
2019-01-03T09:19:32.293Z,30.57
2019-01-03T09:22:19.252Z,29.70
2019-01-03T09:25:16.118Z,32.27
2019-01-03T09:28:02.256Z,27.47
2019-01-03T09:30:46.600Z,28.07
2019-01-03T09:33:33.429Z,30.77
2019-01-03T09:36:32.379Z,34.10
2019-01-03T09:39:19.222Z,29.90
2019-01-03T09:42:06.123Z,31.00
2019-01-03T09:44:46.274Z,27.87
2019-01-03T09:47:15.398Z,27.53
2019-01-03T09:49:43.987Z,29.47
2019-01-03T09:52:12.731Z,30.70
2019-01-03T09:54:41.172Z,24.43
2019-01-03T09:57:09.220Z,31.70
2019-01-03T09:59:37.098Z,34.67
2019-01-03T10:02:05.015Z,32.73
2019-01-03T10:04:33.355Z,29.63
2019-01-03T10:07:01.532Z,34.03
2019-01-03T10:09:29.680Z,69.37
2019-01-03T10:11:57.226Z,84.77
2019-01-03T10:14:26.004Z,78.03
2019-01-03T10:16:54.152Z,94.87
2019-01-03T10:19:22.004Z,80.40
2019-01-03T10:21:50.291Z,54.27
2019-01-03T10:24:18.142Z,30.83
2019-01-03T10:26:46.041Z,49.17
2019-01-03T10:29:14.457Z,42.00
2019-01-03T10:31:42.332Z,48.27
2019-01-03T10:34:10.172Z,45.40
2019-01-03T10:36:37.843Z,37.23
2019-01-03T10:39:06.485Z,31.80
2019-01-03T10:41:34.049Z,39.10
2019-01-03T10:44:01.892Z,26.80
2019-01-03T10:46:30.060Z,22.87
2019-01-03T10:48:57.979Z,48.37
2019-01-03T10:51:25.952Z,58.37
2019-01-03T10:53:54.182Z,28.67
2019-01-03T10:56:22.429Z,22.73
2019-01-03T10:58:51.642Z,23.80
2019-01-03T11:01:19.241Z,29.03
2019-01-03T11:03:47.535Z,22.47
2019-01-03T11:06:15.998Z,26.73
2019-01-03T11:08:43.994Z,30.70
2019-01-03T11:11:12.035Z,17.03
2019-01-03T11:13:40.143Z,18.73
2019-01-03T11:16:07.878Z,18.40
2019-01-03T11:18:36.046Z,13.03
2019-01-03T11:21:04.313Z,19.60
2019-01-03T11:23:32.671Z,18.30
2019-01-03T11:26:00.615Z,19.67
2019-01-03T11:28:28.876Z,16.40
2019-01-03T11:30:56.572Z,19.53
2019-01-03T11:33:24.834Z,17.40
2019-01-03T11:35:53.151Z,20.17
2019-01-03T11:38:21.450Z,16.97
2019-01-03T11:40:49.191Z,17.40
2019-01-03T11:43:17.171Z,19.80
2019-01-03T11:45:44.514Z,14.03
2019-01-03T11:48:12.825Z,27.47
2019-01-03T11:50:40.464Z,16.20
2019-01-03T11:53:08.347Z,12.50
2019-01-03T11:55:36.624Z,16.07
2019-01-03T11:58:04.488Z,26.43
2019-01-03T12:00:32.662Z,22.73
2019-01-03T12:03:00.646Z,12.80
2019-01-03T12:05:28.904Z,17.40
2019-01-03T12:07:57.254Z,13.93
2019-01-03T12:10:25.265Z,16.13
2019-01-03T12:12:53.499Z,16.87
2019-01-03T12:15:21.516Z,19.00
2019-01-03T12:17:49.787Z,15.73
2019-01-03T12:20:18.024Z,22.27
2019-01-03T12:22:45.671Z,18.03
2019-01-03T12:25:13.592Z,15.90
2019-01-03T12:27:41.448Z,16.90
2019-01-03T12:30:09.904Z,17.27
2019-01-03T12:32:37.478Z,20.40
2019-01-03T12:35:06.166Z,18.70
2019-01-03T12:37:34.898Z,14.73
2019-01-03T12:40:02.935Z,19.77
2019-01-03T12:42:31.561Z,43.03
2019-01-03T12:44:58.860Z,14.87
2019-01-03T12:47:26.747Z,14.43
2019-01-03T12:49:55.255Z,22.37
2019-01-03T12:52:23.742Z,17.43
2019-01-03T12:54:51.933Z,15.30
2019-01-03T12:57:19.784Z,14.13
2019-01-03T12:59:48.063Z,13.17
2019-01-03T13:02:16.075Z,20.57
2019-01-03T13:04:44.074Z,20.20
2019-01-03T13:07:12.603Z,16.77
2019-01-03T13:09:40.367Z,22.27
2019-01-03T13:12:08.192Z,18.00
2019-01-03T13:14:36.138Z,25.27
2019-01-03T13:17:04.079Z,22.60
2019-01-03T13:19:32.684Z,20.57
2019-01-03T13:22:01.054Z,17.10
2019-01-03T13:24:29.126Z,48.83
2019-01-03T13:26:56.601Z,25.77
2019-01-03T13:29:24.788Z,26.43
2019-01-03T13:31:52.657Z,37.73
2019-01-03T13:34:21.866Z,18.37
2019-01-03T13:36:50.110Z,22.03
2019-01-03T13:39:18.732Z,25.93
2019-01-03T13:41:48.183Z,22.40
2019-01-03T13:44:16.243Z,12.90
2019-01-03T13:46:44.662Z,10.80
2019-01-03T13:49:12.778Z,17.97
2019-01-03T13:52:13.654Z,15.90
2019-01-03T13:54:41.491Z,32.60
2019-01-03T13:57:09.159Z,73.70
2019-01-03T13:59:37.185Z,28.83
2019-01-03T14:02:05.307Z,22.23
2019-01-03T14:04:33.181Z,21.73
2019-01-03T14:07:02.579Z,20.27
2019-01-03T14:09:30.367Z,28.00
2019-01-03T14:11:57.780Z,44.23
2019-01-03T14:14:26.149Z,19.77
2019-01-03T14:16:54.737Z,35.23
2019-01-03T14:19:22.535Z,37.50
2019-01-03T14:21:50.702Z,30.60
2019-01-03T14:24:25.171Z,23.83
2019-01-03T14:26:52.809Z,25.00
2019-01-03T14:29:20.408Z,16.23
2019-01-03T14:31:48.482Z,24.30
2019-01-03T14:34:16.726Z,24.77
2019-01-03T14:36:48.193Z,19.57
2019-01-03T14:39:16.062Z,16.30
2019-01-03T14:41:47.028Z,24.73
2019-01-03T14:44:14.853Z,50.10
2019-01-03T14:46:42.235Z,15.10
2019-01-03T14:49:10.151Z,19.43
2019-01-03T14:51:38.452Z,33.37
2019-01-03T14:54:06.403Z,73.20
2019-01-03T14:56:34.502Z,25.30
2019-01-03T14:59:02.081Z,17.63
2019-01-03T15:01:30.114Z,18.20
2019-01-03T15:03:58.072Z,23.50
2019-01-03T15:06:26.307Z,18.63
2019-01-03T15:08:54.161Z,24.40
2019-01-03T15:11:21.790Z,22.43
2019-01-03T15:13:49.419Z,18.13
2019-01-03T15:16:17.051Z,25.17
2019-01-03T15:18:45.167Z,43.33
2019-01-03T15:21:12.813Z,20.60
2019-01-03T15:23:40.592Z,17.30
2019-01-03T15:26:08.212Z,19.70
2019-01-03T15:28:36.174Z,24.13
2019-01-03T15:31:04.245Z,23.83
2019-01-03T15:33:32.514Z,64.60
2019-01-03T15:35:59.970Z,27.27
2019-01-03T15:38:28.067Z,21.57
2019-01-03T15:40:56.250Z,27.30
2019-01-03T15:43:24.608Z,20.67
2019-01-03T15:45:52.948Z,16.20
2019-01-03T15:48:21.261Z,12.73
2019-01-03T15:50:49.013Z,24.43
2019-01-03T15:53:16.958Z,12.83
2019-01-03T15:55:44.947Z,17.10
2019-01-03T15:58:12.972Z,15.10
2019-01-03T16:00:40.925Z,23.10
2019-01-03T16:03:08.931Z,15.00
2019-01-03T16:05:36.453Z,20.03
2019-01-03T16:08:04.064Z,21.40
2019-01-03T16:10:31.998Z,53.27
2019-01-03T16:12:59.918Z,37.83
2019-01-03T16:15:27.859Z,23.57
2019-01-03T16:17:55.920Z,27.57
2019-01-03T16:20:23.738Z,14.80
2019-01-03T16:22:51.930Z,20.77
2019-01-03T16:25:19.884Z,16.43
2019-01-03T16:27:48.271Z,18.43
2019-01-03T16:30:16.490Z,16.17
2019-01-03T16:32:44.430Z,21.57
2019-01-03T16:35:12.140Z,15.23
2019-01-03T16:37:40.022Z,14.73
2019-01-03T16:40:09.388Z,16.00
2019-01-03T16:42:37.963Z,24.83
2019-01-03T16:45:05.231Z,25.03
2019-01-03T16:47:32.814Z,26.10
2019-01-03T16:50:00.486Z,20.80
2019-01-03T16:52:28.441Z,26.37
2019-01-03T16:54:57.775Z,24.10
2019-01-03T16:57:26.222Z,17.10
2019-01-03T16:59:54.257Z,22.47
2019-01-03T17:02:22.689Z,19.90
2019-01-03T17:04:50.662Z,19.43
2019-01-03T17:07:19.233Z,20.60
2019-01-03T17:09:46.824Z,26.73
2019-01-03T17:12:14.692Z,39.30
2019-01-03T17:14:42.119Z,54.07
2019-01-03T17:17:10.350Z,52.57
2019-01-03T17:19:38.746Z,38.93
2019-01-03T17:22:06.435Z,27.73
2019-01-03T17:24:34.664Z,32.13
2019-01-03T17:27:03.114Z,47.87
2019-01-03T17:29:30.395Z,97.50
2019-01-03T17:31:58.231Z,46.40
2019-01-03T17:34:25.912Z,61.77
2019-01-03T17:36:53.766Z,48.33
2019-01-03T17:39:21.437Z,59.10
2019-01-03T17:41:49.161Z,26.63
2019-01-03T17:44:17.467Z,22.10
2019-01-03T17:46:45.681Z,21.20
2019-01-03T17:49:14.052Z,15.17
2019-01-03T17:51:42.460Z,29.23
2019-01-03T17:54:13.726Z,21.47
2019-01-03T17:56:41.251Z,58.97
2019-01-03T17:59:09.521Z,64.80
2019-01-03T18:01:37.452Z,82.23
2019-01-03T18:04:05.493Z,44.23
2019-01-03T18:06:33.726Z,41.70
2019-01-03T18:09:02.022Z,26.90
2019-01-03T18:11:29.785Z,27.23
2019-01-03T18:13:57.656Z,27.10
2019-01-03T18:16:25.277Z,15.03
2019-01-03T18:18:53.098Z,16.13
2019-01-03T18:21:21.404Z,20.70
2019-01-03T18:23:49.250Z,19.70
2019-01-03T18:26:16.793Z,21.13
2019-01-03T18:28:44.823Z,27.83
2019-01-03T18:31:12.793Z,62.73
2019-01-03T18:33:40.693Z,47.70
2019-01-03T18:36:08.747Z,45.40
2019-01-03T18:38:37.001Z,52.70
2019-01-03T18:41:05.313Z,24.47
2019-01-03T18:43:33.191Z,30.13
2019-01-03T18:46:00.850Z,22.73
2019-01-03T18:48:28.584Z,19.07
2019-01-03T18:50:56.288Z,21.23
2019-01-03T18:53:24.191Z,21.17
2019-01-03T18:55:52.123Z,18.53
2019-01-03T18:58:20.191Z,20.13
2019-01-03T19:00:47.919Z,22.43
2019-01-03T19:03:16.242Z,20.23
2019-01-03T19:05:44.277Z,20.37
2019-01-03T19:08:12.380Z,21.40
2019-01-03T19:10:40.492Z,17.77
2019-01-03T19:13:08.692Z,26.60
2019-01-03T19:15:36.957Z,20.00
2019-01-03T19:18:05.238Z,18.83
2019-01-03T19:20:33.429Z,17.47
2019-01-03T19:23:01.487Z,25.47
2019-01-03T19:25:29.777Z,17.30
2019-01-03T19:27:57.096Z,21.37
2019-01-03T19:30:25.322Z,19.53
2019-01-03T19:32:53.540Z,23.73
2019-01-03T19:35:21.445Z,21.40
2019-01-03T19:37:49.114Z,19.97
2019-01-03T19:40:17.093Z,18.37
2019-01-03T19:42:46.366Z,17.20
2019-01-03T19:45:14.040Z,24.83
2019-01-03T19:47:42.313Z,16.33
2019-01-03T19:50:12.563Z,25.03
2019-01-03T19:52:40.523Z,22.60
2019-01-03T19:55:08.889Z,22.33
2019-01-03T19:57:37.248Z,26.70
2019-01-03T20:00:06.158Z,24.40
2019-01-03T20:02:34.086Z,46.40
2019-01-03T20:05:02.150Z,28.90
2019-01-03T20:07:30.152Z,23.10
2019-01-03T20:09:58.463Z,25.13
2019-01-03T20:12:26.210Z,21.80
2019-01-03T20:14:54.720Z,20.00
2019-01-03T20:17:22.515Z,43.70
2019-01-03T20:19:50.459Z,22.03
2019-01-03T20:22:18.701Z,18.70
2019-01-03T20:24:47.437Z,17.43
2019-01-03T20:27:15.448Z,21.17
2019-01-03T20:29:43.355Z,15.83
2019-01-03T20:32:11.389Z,17.03
2019-01-03T20:34:39.435Z,16.97
2019-01-03T20:37:08.107Z,20.00
2019-01-03T20:39:36.180Z,22.40
2019-01-03T20:42:03.777Z,22.40
2019-01-03T20:44:31.441Z,25.67
2019-01-03T20:46:58.677Z,21.90
2019-01-03T20:49:26.999Z,23.77
2019-01-03T20:51:54.872Z,20.10
2019-01-03T20:54:23.934Z,44.73
2019-01-03T20:56:53.409Z,31.17
2019-01-03T20:59:21.600Z,45.07
2019-01-03T21:01:49.687Z,25.80
2019-01-03T21:04:17.895Z,38.47
2019-01-03T21:06:45.537Z,64.17
2019-01-03T21:09:13.124Z,33.27
2019-01-03T21:11:41.514Z,38.00
2019-01-03T21:14:09.141Z,20.47
2019-01-03T21:16:37.380Z,22.53
2019-01-03T21:19:05.931Z,21.03
2019-01-03T21:21:34.833Z,17.07
2019-01-03T21:24:03.626Z,14.67
2019-01-03T21:26:31.991Z,15.93
2019-01-03T21:29:00.367Z,15.80
2019-01-03T21:31:29.054Z,11.10
2019-01-03T21:33:57.733Z,16.87
2019-01-03T21:36:25.964Z,18.87
2019-01-03T21:38:54.704Z,21.00
2019-01-03T21:41:22.687Z,23.73
2019-01-03T21:43:50.565Z,20.37
2019-01-03T21:46:18.594Z,44.27
2019-01-03T21:48:52.969Z,40.70
2019-01-03T21:51:16.810Z,33.63
2019-01-03T21:53:44.941Z,30.43
2019-01-03T21:56:12.875Z,30.97
2019-01-03T21:58:41.114Z,36.23
2019-01-03T22:01:09.502Z,15.50
2019-01-03T22:03:37.155Z,16.30
2019-01-03T22:06:05.126Z,13.73
2019-01-03T22:08:33.529Z,14.73
2019-01-03T22:11:01.179Z,11.73
2019-01-03T22:13:29.214Z,14.40
2019-01-03T22:15:56.633Z,12.60
2019-01-03T22:18:24.302Z,16.57
2019-01-03T22:20:52.754Z,16.27
2019-01-03T22:23:20.652Z,14.20
2019-01-03T22:25:48.619Z,14.53
2019-01-03T22:28:16.718Z,25.20
2019-01-03T22:30:45.288Z,19.63
2019-01-03T22:33:13.305Z,13.87
2019-01-03T22:35:40.912Z,20.33
2019-01-03T22:38:09.119Z,11.90
2019-01-03T22:40:37.247Z,11.87
2019-01-03T22:43:05.510Z,15.70
2019-01-03T22:45:33.496Z,18.20
2019-01-03T22:48:01.144Z,15.63
2019-01-03T22:50:28.898Z,13.23
2019-01-03T22:52:56.694Z,18.83
2019-01-03T22:55:25.244Z,16.43
2019-01-03T22:57:53.890Z,10.30
2019-01-03T23:00:37.097Z,10.50
2019-01-03T23:03:05.147Z,14.70
2019-01-03T23:05:32.907Z,13.27
2019-01-03T23:08:01.019Z,14.10
2019-01-03T23:10:29.214Z,13.97
2019-01-03T23:12:57.635Z,8.30
2019-01-03T23:15:26.183Z,18.57
2019-01-03T23:17:54.305Z,10.30
2019-01-03T23:20:22.754Z,12.93
2019-01-03T23:22:50.371Z,11.43
2019-01-03T23:25:18.604Z,9.30
2019-01-03T23:27:47.426Z,13.87
2019-01-03T23:30:15.988Z,9.13
2019-01-03T23:32:44.476Z,8.90
2019-01-03T23:35:13.135Z,8.27
2019-01-03T23:37:41.672Z,12.43
2019-01-03T23:40:10.499Z,11.33
2019-01-03T23:42:40.309Z,14.70
2019-01-03T23:45:16.121Z,21.60
2019-01-03T23:47:45.399Z,12.83
2019-01-03T23:50:17.317Z,18.98
2019-01-03T23:52:46.739Z,22.83
2019-01-03T23:55:14.804Z,22.87
2019-01-03T23:57:43.010Z,18.20
